createdAt,value
2017-06-13T00:01:10.099Z,17.10
2017-06-13T00:03:12.025Z,16.95
2017-06-13T00:05:13.757Z,16.86
2017-06-13T00:07:15.635Z,16.95
2017-06-13T00:09:17.536Z,16.92
2017-06-13T00:11:19.437Z,17.00
2017-06-13T00:13:21.236Z,17.08
2017-06-13T00:15:23.133Z,17.00
2017-06-13T00:17:25.079Z,17.06
2017-06-13T00:19:26.885Z,17.07
2017-06-13T00:21:28.620Z,16.96
2017-06-13T00:23:30.558Z,16.99
2017-06-13T00:25:32.414Z,16.89
2017-06-13T00:27:34.306Z,16.95
2017-06-13T00:29:36.139Z,16.89
2017-06-13T00:31:38.015Z,16.99
2017-06-13T00:33:39.820Z,16.98
2017-06-13T00:35:41.558Z,16.88
2017-06-13T00:37:43.450Z,16.99
2017-06-13T00:39:46.008Z,16.92
2017-06-13T00:41:47.763Z,16.86
2017-06-13T00:43:49.550Z,16.88
2017-06-13T00:45:51.477Z,16.95
2017-06-13T00:47:53.366Z,16.96
2017-06-13T00:49:55.197Z,16.93
2017-06-13T00:51:56.942Z,16.89
2017-06-13T00:53:58.853Z,16.93
2017-06-13T00:56:00.813Z,16.90
2017-06-13T00:58:02.663Z,16.95
2017-06-13T01:00:04.451Z,16.74
2017-06-13T01:02:06.355Z,16.77
2017-06-13T01:04:08.116Z,16.90
2017-06-13T01:06:10.022Z,16.73
2017-06-13T01:08:11.904Z,16.85
2017-06-13T01:10:13.711Z,16.77
2017-06-13T01:12:16.242Z,16.81
2017-06-13T01:14:18.236Z,16.81
2017-06-13T01:16:20.104Z,16.83
2017-06-13T01:18:21.939Z,16.86
2017-06-13T01:20:23.886Z,16.88
2017-06-13T01:22:25.706Z,16.81
2017-06-13T01:24:27.550Z,16.90
2017-06-13T01:26:29.390Z,16.85
2017-06-13T01:28:31.182Z,16.83
2017-06-13T01:30:32.894Z,16.88
2017-06-13T01:32:34.786Z,16.73
2017-06-13T01:34:36.636Z,16.92
2017-06-13T01:36:38.354Z,16.86
2017-06-13T01:38:40.206Z,16.80
2017-06-13T01:40:42.158Z,16.78
2017-06-13T01:42:44.020Z,16.71
2017-06-13T01:44:45.847Z,16.67
2017-06-13T01:46:47.623Z,16.71
2017-06-13T01:48:49.440Z,16.74
2017-06-13T01:50:51.456Z,16.90
2017-06-13T01:52:53.464Z,16.88
2017-06-13T01:54:55.460Z,16.80
2017-06-13T01:56:57.407Z,16.83
2017-06-13T01:58:59.240Z,16.80
2017-06-13T02:01:01.133Z,16.68
2017-06-13T02:03:03.005Z,16.68
2017-06-13T02:05:05.099Z,16.85
2017-06-13T02:07:06.802Z,16.78
2017-06-13T02:09:08.830Z,16.74
2017-06-13T02:11:10.669Z,16.65
2017-06-13T02:13:12.448Z,16.68
2017-06-13T02:15:14.084Z,16.70
2017-06-13T02:17:15.843Z,16.68
2017-06-13T02:19:17.639Z,16.78
2017-06-13T02:21:19.548Z,16.95
2017-06-13T02:23:21.420Z,16.92
2017-06-13T02:25:23.161Z,16.95
2017-06-13T02:27:24.848Z,16.88
2017-06-13T02:29:26.807Z,16.88
2017-06-13T02:31:28.640Z,16.80
2017-06-13T02:33:30.495Z,16.74
2017-06-13T02:35:32.243Z,16.67
2017-06-13T02:37:34.100Z,16.71
2017-06-13T02:39:36.094Z,16.71
2017-06-13T02:41:37.945Z,16.67
2017-06-13T02:43:39.716Z,16.62
2017-06-13T02:45:41.612Z,16.62
2017-06-13T02:47:43.572Z,16.65
2017-06-13T02:49:45.368Z,16.65
2017-06-13T02:51:47.082Z,16.71
2017-06-13T02:53:48.838Z,16.63
2017-06-13T02:55:50.707Z,16.67
2017-06-13T02:57:52.438Z,16.75
2017-06-13T02:59:54.164Z,16.90
2017-06-13T03:01:55.934Z,16.77
2017-06-13T03:03:57.782Z,16.67
2017-06-13T03:05:59.614Z,16.50
2017-06-13T03:08:01.217Z,16.50
2017-06-13T03:10:02.944Z,16.62
2017-06-13T03:12:04.771Z,16.67
2017-06-13T03:14:06.717Z,16.58
2017-06-13T03:16:08.491Z,16.55
2017-06-13T03:18:10.388Z,16.44
2017-06-13T03:20:12.350Z,16.40
2017-06-13T03:22:14.323Z,16.34
2017-06-13T03:24:16.256Z,16.25
2017-06-13T03:26:18.031Z,16.30
2017-06-13T03:28:19.781Z,16.35
2017-06-13T03:30:21.765Z,16.27
2017-06-13T03:32:23.583Z,16.20
2017-06-13T03:34:25.433Z,16.30
2017-06-13T03:36:27.366Z,16.23
2017-06-13T03:38:29.318Z,16.25
2017-06-13T03:40:31.156Z,16.27
2017-06-13T03:42:33.005Z,16.37
2017-06-13T03:44:36.644Z,16.23
2017-06-13T03:46:38.646Z,16.16
2017-06-13T03:48:40.439Z,16.11
2017-06-13T03:50:42.250Z,15.88
2017-06-13T03:52:43.993Z,15.92
2017-06-13T03:54:46.018Z,15.86
2017-06-13T03:56:47.754Z,15.94
2017-06-13T03:58:49.474Z,15.88
2017-06-13T04:00:51.297Z,15.84
2017-06-13T04:02:53.058Z,15.88
2017-06-13T04:04:55.027Z,15.93
2017-06-13T04:06:56.800Z,15.94
2017-06-13T04:08:58.726Z,16.00
2017-06-13T04:11:00.837Z,15.97
2017-06-13T04:13:02.699Z,15.93
2017-06-13T04:15:04.575Z,15.86
2017-06-13T04:17:06.306Z,15.84
2017-06-13T04:19:08.132Z,15.75
2017-06-13T04:21:09.917Z,15.86
2017-06-13T04:23:11.692Z,15.89
2017-06-13T04:25:13.552Z,15.78
2017-06-13T04:27:15.362Z,15.68
2017-06-13T04:29:17.469Z,15.76
2017-06-13T04:31:19.345Z,15.72
2017-06-13T04:33:21.151Z,15.92
2017-06-13T04:35:22.993Z,15.84
2017-06-13T04:37:24.803Z,15.88
2017-06-13T04:39:26.603Z,16.01
2017-06-13T04:41:28.404Z,16.00
2017-06-13T04:43:30.116Z,16.03
2017-06-13T04:45:31.944Z,16.14
2017-06-13T04:47:33.703Z,16.14
2017-06-13T04:49:35.465Z,16.06
2017-06-13T04:51:37.341Z,16.23
2017-06-13T04:53:39.152Z,16.25
2017-06-13T04:55:40.884Z,16.34
2017-06-13T04:57:42.798Z,16.42
2017-06-13T04:59:44.641Z,16.41
2017-06-13T05:01:46.427Z,16.50
2017-06-13T05:03:48.377Z,16.55
2017-06-13T05:05:50.127Z,16.62
2017-06-13T05:07:52.111Z,16.65
2017-06-13T05:09:53.856Z,16.68
2017-06-13T05:11:55.395Z,16.75
2017-06-13T05:13:57.125Z,16.95
2017-06-13T05:15:58.984Z,17.08
2017-06-13T05:18:00.880Z,16.98
2017-06-13T05:20:02.621Z,17.07
2017-06-13T05:22:04.685Z,17.28
2017-06-13T05:24:06.897Z,17.10
2017-06-13T05:26:08.885Z,17.14
2017-06-13T05:28:10.759Z,17.14
2017-06-13T05:30:12.641Z,17.13
2017-06-13T05:32:14.590Z,17.00
2017-06-13T05:34:16.510Z,16.98
2017-06-13T05:36:18.307Z,17.00
2017-06-13T05:38:20.319Z,17.28
2017-06-13T05:40:22.258Z,17.43
2017-06-13T05:42:24.004Z,17.41
2017-06-13T05:44:25.705Z,17.53
2017-06-13T05:46:27.462Z,17.73
2017-06-13T05:48:29.339Z,17.76
2017-06-13T05:50:31.251Z,18.07
2017-06-13T05:52:32.779Z,18.50
2017-06-13T05:54:34.497Z,18.68
2017-06-13T05:56:36.741Z,18.72
2017-06-13T05:58:38.885Z,19.05
2017-06-13T06:00:40.953Z,19.72
2017-06-13T06:02:42.759Z,20.54
2017-06-13T06:04:44.946Z,20.27
2017-06-13T06:06:46.793Z,20.08
2017-06-13T06:08:48.984Z,19.70
2017-06-13T06:10:50.982Z,19.20
2017-06-13T06:12:52.680Z,19.14
2017-06-13T06:14:54.547Z,19.02
2017-06-13T06:16:56.420Z,19.08
2017-06-13T06:18:58.241Z,19.46
2017-06-13T06:21:00.238Z,20.33
2017-06-13T06:23:02.080Z,20.66
2017-06-13T06:25:04.071Z,20.93
2017-06-13T06:27:05.869Z,22.02
2017-06-13T06:29:07.686Z,21.87
2017-06-13T06:31:09.531Z,21.34
2017-06-13T06:33:11.312Z,22.12
2017-06-13T06:35:12.969Z,22.07
2017-06-13T06:37:14.491Z,22.19
2017-06-13T06:39:16.000Z,21.71
2017-06-13T06:41:17.529Z,21.13
2017-06-13T06:43:19.033Z,20.58
2017-06-13T06:45:20.516Z,19.91
2017-06-13T06:47:22.160Z,21.44
2017-06-13T06:49:23.913Z,23.01
2017-06-13T06:51:25.686Z,23.75
2017-06-13T06:53:27.462Z,24.01
2017-06-13T06:55:29.226Z,24.37
2017-06-13T06:57:30.989Z,24.05
2017-06-13T06:59:32.729Z,23.14
2017-06-13T07:01:34.419Z,22.65
2017-06-13T07:03:36.178Z,23.42
2017-06-13T07:05:37.678Z,23.72
2017-06-13T07:07:39.231Z,23.65
2017-06-13T07:09:40.841Z,22.09
2017-06-13T07:11:42.604Z,22.09
2017-06-13T07:13:44.383Z,21.38
2017-06-13T07:15:46.149Z,20.65
2017-06-13T07:17:47.885Z,19.88
2017-06-13T07:19:49.705Z,19.63
2017-06-13T07:21:51.193Z,19.51
2017-06-13T07:23:52.730Z,19.90
2017-06-13T07:25:54.263Z,20.33
2017-06-13T07:27:55.895Z,20.51
2017-06-13T07:29:57.380Z,20.56
2017-06-13T07:31:58.921Z,19.84
2017-06-13T07:34:00.444Z,19.79
2017-06-13T07:36:02.137Z,19.35
2017-06-13T07:38:03.976Z,19.08
2017-06-13T07:40:05.515Z,18.99
2017-06-13T07:42:07.042Z,18.91
2017-06-13T07:44:08.578Z,19.20
2017-06-13T07:46:10.057Z,19.46
2017-06-13T07:48:11.798Z,19.63
2017-06-13T07:50:13.394Z,20.00
2017-06-13T07:52:14.897Z,20.16
2017-06-13T07:54:16.459Z,19.91
2017-06-13T07:56:18.153Z,19.38
2017-06-13T07:58:19.939Z,19.43
2017-06-13T08:00:21.691Z,19.23
2017-06-13T08:02:23.391Z,19.24
2017-06-13T08:04:25.178Z,19.54
2017-06-13T08:06:26.675Z,19.70
2017-06-13T08:08:28.246Z,19.61
2017-06-13T08:10:29.888Z,19.61
2017-06-13T08:12:31.643Z,19.18
2017-06-13T08:14:33.469Z,18.99
2017-06-13T08:16:35.280Z,18.79
2017-06-13T08:18:37.155Z,18.82
2017-06-13T08:20:38.909Z,18.87
2017-06-13T08:22:40.419Z,19.35
2017-06-13T08:24:41.913Z,19.66
2017-06-13T08:26:43.558Z,19.98
2017-06-13T08:28:45.197Z,20.15
2017-06-13T08:30:46.691Z,20.42
2017-06-13T08:32:48.191Z,20.38
2017-06-13T08:34:50.058Z,20.16
2017-06-13T08:36:51.933Z,19.97
2017-06-13T08:38:53.792Z,19.83
2017-06-13T08:40:55.550Z,19.72
2017-06-13T08:42:57.028Z,19.76
2017-06-13T08:44:58.689Z,19.68
2017-06-13T08:47:00.958Z,19.63
2017-06-13T08:49:02.812Z,19.60
2017-06-13T08:51:04.567Z,19.36
2017-06-13T08:53:06.297Z,19.23
2017-06-13T08:55:08.604Z,19.35
2017-06-13T08:57:10.427Z,19.39
2017-06-13T08:59:12.153Z,19.60
2017-06-13T09:01:14.030Z,19.50
2017-06-13T09:03:15.870Z,19.42
2017-06-13T09:05:17.528Z,19.32
2017-06-13T09:07:19.451Z,19.15
2017-06-13T09:09:21.240Z,19.32
2017-06-13T09:11:23.098Z,19.23
2017-06-13T09:13:25.157Z,19.36
2017-06-13T09:15:26.910Z,19.73
2017-06-13T09:17:28.727Z,19.88
2017-06-13T09:19:30.638Z,19.83
2017-06-13T09:21:32.434Z,19.86
2017-06-13T09:23:34.234Z,20.34
2017-06-13T09:25:36.144Z,20.72
2017-06-13T09:27:37.978Z,21.14
2017-06-13T09:29:39.770Z,21.63
2017-06-13T09:31:41.613Z,21.56
2017-06-13T09:33:43.422Z,21.66
2017-06-13T09:35:45.273Z,21.85
2017-06-13T09:37:47.069Z,21.69
2017-06-13T09:39:48.878Z,21.69
2017-06-13T09:41:50.745Z,21.83
2017-06-13T09:43:52.634Z,21.71
2017-06-13T09:45:54.500Z,21.85
2017-06-13T09:47:56.306Z,21.90
2017-06-13T09:49:58.126Z,21.99
2017-06-13T09:51:59.968Z,21.99
2017-06-13T09:54:01.802Z,21.76
2017-06-13T09:56:03.700Z,21.71
2017-06-13T09:58:05.466Z,21.79
2017-06-13T10:00:07.425Z,21.57
2017-06-13T10:02:09.243Z,21.94
2017-06-13T10:04:11.105Z,22.29
2017-06-13T10:06:13.048Z,22.65
2017-06-13T10:08:14.777Z,22.25
2017-06-13T10:10:16.561Z,22.04
2017-06-13T10:12:18.449Z,22.02
2017-06-13T10:14:20.181Z,21.74
2017-06-13T10:16:21.999Z,21.61
2017-06-13T10:18:23.808Z,21.38
2017-06-13T10:20:25.595Z,20.96
2017-06-13T10:22:27.366Z,21.05
2017-06-13T10:24:29.212Z,20.86
2017-06-13T10:26:31.115Z,21.02
2017-06-13T10:28:32.998Z,20.99
2017-06-13T10:30:34.812Z,20.91
2017-06-13T10:32:36.748Z,21.04
2017-06-13T10:34:38.658Z,21.19
2017-06-13T10:36:40.527Z,21.34
2017-06-13T10:38:42.331Z,21.44
2017-06-13T10:40:44.242Z,21.66
2017-06-13T10:42:46.044Z,21.76
2017-06-13T10:44:47.899Z,21.57
2017-06-13T10:46:49.806Z,21.66
2017-06-13T10:48:51.614Z,21.78
2017-06-13T10:50:53.529Z,21.90
2017-06-13T10:52:55.328Z,21.74
2017-06-13T10:54:57.180Z,21.63
2017-06-13T10:56:58.960Z,21.46
2017-06-13T10:59:00.824Z,21.38
2017-06-13T11:01:02.722Z,21.02
2017-06-13T11:03:04.613Z,21.19
2017-06-13T11:05:06.375Z,21.05
2017-06-13T11:07:08.188Z,21.01
2017-06-13T11:09:10.091Z,20.76
2017-06-13T11:11:11.872Z,20.87
2017-06-13T11:13:13.666Z,21.11
2017-06-13T11:15:15.519Z,21.05
2017-06-13T11:17:17.319Z,21.04
2017-06-13T11:19:19.157Z,21.21
2017-06-13T11:21:21.044Z,21.56
2017-06-13T11:23:22.904Z,21.72
2017-06-13T11:25:24.727Z,21.81
2017-06-13T11:27:26.569Z,21.97
2017-06-13T11:29:28.364Z,22.04
2017-06-13T11:31:30.184Z,22.07
2017-06-13T11:33:32.067Z,22.16
2017-06-13T11:35:33.905Z,22.10
2017-06-13T11:37:35.705Z,22.22
2017-06-13T11:39:37.483Z,22.38
2017-06-13T11:41:39.435Z,22.37
2017-06-13T11:43:41.236Z,22.17
2017-06-13T11:45:43.093Z,22.04
2017-06-13T11:47:44.938Z,21.78
2017-06-13T11:49:46.785Z,21.82
2017-06-13T11:51:48.654Z,21.51
2017-06-13T11:53:50.413Z,21.53
2017-06-13T11:55:52.376Z,21.56
2017-06-13T11:57:54.173Z,21.69
2017-06-13T11:59:56.070Z,21.79
2017-06-13T12:01:58.331Z,21.92
2017-06-13T12:04:00.140Z,21.59
2017-06-13T12:06:01.889Z,21.66
2017-06-13T12:08:04.143Z,21.61
2017-06-13T12:10:05.905Z,21.53
2017-06-13T12:12:08.242Z,21.75
2017-06-13T12:14:10.073Z,21.46
2017-06-13T12:16:12.182Z,21.30
2017-06-13T12:18:13.938Z,21.17
2017-06-13T12:20:16.468Z,21.06
2017-06-13T12:22:18.828Z,20.83
2017-06-13T12:24:20.626Z,20.69
2017-06-13T12:26:22.483Z,20.56
2017-06-13T12:28:24.826Z,20.53
2017-06-13T12:30:27.366Z,20.47
2017-06-13T12:32:29.488Z,20.56
2017-06-13T12:34:33.002Z,20.77
2017-06-13T12:36:35.479Z,20.64
2017-06-13T12:38:37.857Z,20.50
2017-06-13T12:40:39.645Z,20.64
2017-06-13T12:42:41.603Z,20.58
2017-06-13T12:44:43.543Z,20.74
2017-06-13T12:46:45.683Z,20.80
2017-06-13T12:48:47.564Z,20.89
2017-06-13T12:50:49.619Z,20.72
2017-06-13T12:52:51.463Z,20.80
2017-06-13T12:54:53.333Z,20.72
2017-06-13T12:56:55.444Z,20.65
2017-06-13T12:58:57.617Z,20.35
2017-06-13T13:01:40.706Z,20.12
2017-06-13T13:04:25.610Z,20.09
2017-06-13T13:07:08.328Z,20.03
2017-06-13T13:09:09.722Z,20.03
2017-06-13T13:11:11.497Z,20.03
2017-06-13T13:13:13.640Z,20.03
2017-06-13T13:15:15.396Z,20.02
2017-06-13T13:17:57.250Z,20.06
2017-06-13T13:19:58.758Z,20.31
2017-06-13T13:22:00.927Z,20.49
2017-06-13T13:24:03.174Z,20.59
2017-06-13T13:26:04.875Z,20.79
2017-06-13T13:28:06.621Z,20.91
2017-06-13T13:30:08.620Z,20.76
2017-06-13T13:32:10.656Z,20.74
2017-06-13T13:34:12.479Z,20.90
2017-06-13T13:36:14.417Z,20.98
2017-06-13T13:38:16.318Z,20.91
2017-06-13T13:40:18.171Z,20.87
2017-06-13T13:42:20.399Z,20.64
2017-06-13T13:44:22.150Z,20.77
2017-06-13T13:46:23.813Z,20.72
2017-06-13T13:49:06.750Z,20.65
2017-06-13T13:51:08.750Z,20.58
2017-06-13T13:53:10.220Z,20.66
2017-06-13T13:55:13.206Z,20.66
2017-06-13T13:58:00.860Z,20.66
2017-06-13T14:00:44.503Z,20.69
2017-06-13T14:02:46.261Z,20.72
2017-06-13T14:04:47.754Z,20.95
2017-06-13T14:06:51.476Z,21.09
2017-06-13T14:08:53.261Z,21.14
2017-06-13T14:10:55.390Z,21.02
2017-06-13T14:12:57.270Z,21.06
2017-06-13T14:14:58.975Z,21.06
2017-06-13T14:17:00.764Z,21.01
2017-06-13T14:19:02.327Z,20.95
2017-06-13T14:21:04.431Z,20.74
2017-06-13T14:23:06.116Z,20.71
2017-06-13T14:25:08.537Z,20.71
2017-06-13T14:27:10.481Z,20.76
2017-06-13T14:29:12.236Z,20.71
2017-06-13T14:31:13.970Z,20.74
2017-06-13T14:33:16.022Z,20.93
2017-06-13T14:35:17.520Z,21.08
2017-06-13T14:37:19.442Z,21.38
2017-06-13T14:39:21.242Z,21.41
2017-06-13T14:41:23.726Z,21.57
2017-06-13T14:43:25.670Z,21.67
2017-06-13T14:45:31.476Z,21.76
2017-06-13T14:47:33.066Z,21.92
2017-06-13T14:51:03.072Z,22.04
2017-06-13T14:53:50.693Z,22.12
2017-06-13T14:57:14.877Z,22.27
2017-06-13T14:59:57.954Z,22.22
2017-06-13T15:02:00.066Z,22.23
2017-06-13T15:04:04.453Z,22.27
2017-06-13T15:06:07.661Z,22.32
2017-06-13T15:08:11.619Z,22.31
2017-06-13T15:10:13.466Z,22.22
2017-06-13T15:12:15.914Z,22.31
2017-06-13T15:14:17.683Z,22.17
2017-06-13T15:16:19.557Z,22.02
2017-06-13T15:18:21.444Z,22.01
2017-06-13T15:20:23.333Z,21.91
2017-06-13T15:22:25.147Z,21.97
2017-06-13T15:24:27.036Z,21.90
2017-06-13T15:26:28.955Z,21.95
2017-06-13T15:28:30.886Z,21.87
2017-06-13T15:30:32.707Z,21.74
2017-06-13T15:32:34.599Z,21.75
2017-06-13T15:34:36.810Z,21.72
2017-06-13T15:36:38.679Z,21.64
2017-06-13T15:38:40.641Z,21.60
2017-06-13T15:40:43.088Z,21.56
2017-06-13T15:42:45.963Z,21.45
2017-06-13T15:44:47.769Z,21.39
2017-06-13T15:46:49.686Z,21.36
2017-06-13T15:48:51.584Z,21.38
2017-06-13T15:50:53.559Z,21.23
2017-06-13T15:52:55.426Z,21.32
2017-06-13T15:54:58.023Z,21.29
2017-06-13T15:57:00.673Z,21.27
2017-06-13T15:59:02.559Z,21.35
2017-06-13T16:01:04.493Z,21.42
2017-06-13T16:03:06.401Z,21.45
2017-06-13T16:05:09.191Z,21.57
2017-06-13T16:07:10.974Z,21.42
2017-06-13T16:09:13.611Z,21.57
2017-06-13T16:11:16.121Z,21.57
2017-06-13T16:13:18.812Z,21.59
2017-06-13T16:15:21.376Z,21.69
2017-06-13T16:17:23.998Z,21.64
2017-06-13T16:19:25.851Z,21.72
2017-06-13T16:21:28.382Z,21.56
2017-06-13T16:23:30.345Z,21.56
2017-06-13T16:25:32.968Z,21.57
2017-06-13T16:27:35.497Z,21.71
2017-06-13T16:29:37.272Z,21.67
2017-06-13T16:31:39.214Z,21.71
2017-06-13T16:33:40.994Z,21.72
2017-06-13T16:35:43.027Z,21.79
2017-06-13T16:37:45.665Z,21.79
2017-06-13T16:39:47.518Z,21.69
2017-06-13T16:41:50.083Z,21.66
2017-06-13T16:43:52.065Z,21.69
2017-06-13T16:45:54.553Z,21.69
2017-06-13T16:47:56.425Z,21.74
2017-06-13T16:49:59.013Z,21.75
2017-06-13T16:52:01.400Z,21.63
2017-06-13T16:54:03.278Z,21.76
2017-06-13T16:56:05.191Z,21.67
2017-06-13T16:58:07.625Z,21.71
2017-06-13T17:00:10.155Z,21.69
2017-06-13T17:02:12.071Z,21.69
2017-06-13T17:04:13.888Z,21.59
2017-06-13T17:06:16.473Z,21.57
2017-06-13T17:08:18.868Z,21.60
2017-06-13T17:10:21.441Z,21.64
2017-06-13T17:12:23.248Z,21.75
2017-06-13T17:14:25.218Z,21.66
2017-06-13T17:16:27.098Z,21.72
2017-06-13T17:18:29.586Z,21.66
2017-06-13T17:20:31.493Z,21.72
2017-06-13T17:22:34.059Z,21.75
2017-06-13T17:24:36.652Z,21.78
2017-06-13T17:26:38.490Z,21.82
2017-06-13T17:28:40.989Z,21.82
2017-06-13T17:30:42.918Z,21.90
2017-06-13T17:32:45.574Z,21.85
2017-06-13T17:34:47.488Z,21.85
2017-06-13T17:36:50.022Z,21.76
2017-06-13T17:38:52.628Z,21.76
2017-06-13T17:40:54.915Z,21.82
2017-06-13T17:42:58.674Z,21.74
2017-06-13T17:45:00.804Z,21.75
2017-06-13T17:47:02.663Z,21.74
2017-06-13T17:49:04.701Z,21.76
2017-06-13T17:51:06.535Z,21.75
2017-06-13T17:53:08.711Z,21.76
2017-06-13T17:55:11.682Z,21.67
2017-06-13T17:57:13.536Z,21.66
2017-06-13T17:59:16.496Z,21.72
2017-06-13T18:01:18.469Z,21.60
2017-06-13T18:03:20.705Z,21.67
2017-06-13T18:05:22.913Z,21.59
2017-06-13T18:07:25.035Z,21.57
2017-06-13T18:09:26.707Z,21.60
2017-06-13T18:11:28.935Z,21.56
2017-06-13T18:13:30.798Z,21.57
2017-06-13T18:15:32.556Z,21.57
2017-06-13T18:17:34.568Z,21.51
2017-06-13T18:19:36.677Z,21.59
2017-06-13T18:21:38.190Z,21.46
2017-06-13T18:23:39.694Z,21.36
2017-06-13T18:25:41.431Z,21.41
2017-06-13T18:27:43.721Z,21.38
2017-06-13T18:29:45.682Z,21.38
2017-06-13T18:31:47.890Z,21.23
2017-06-13T18:33:50.095Z,21.23
2017-06-13T18:35:52.253Z,21.21
2017-06-13T18:37:53.849Z,21.02
2017-06-13T18:39:56.227Z,21.04
2017-06-13T18:41:58.786Z,21.02
2017-06-13T18:44:01.815Z,20.91
2017-06-13T18:46:03.676Z,20.83
2017-06-13T18:48:05.574Z,20.71
2017-06-13T18:50:07.595Z,20.76
2017-06-13T18:52:09.542Z,20.71
2017-06-13T18:54:11.108Z,20.50
2017-06-13T18:56:12.744Z,20.59
2017-06-13T18:58:14.227Z,20.50
2017-06-13T19:00:16.467Z,20.51
2017-06-13T19:02:18.475Z,20.46
2017-06-13T19:04:20.410Z,20.39
2017-06-13T19:06:22.140Z,20.34
2017-06-13T19:08:24.514Z,20.30
2017-06-13T19:10:26.408Z,20.28
2017-06-13T19:12:27.976Z,20.30
2017-06-13T19:14:29.978Z,20.33
2017-06-13T19:16:32.010Z,20.28
2017-06-13T19:18:33.992Z,20.27
2017-06-13T19:20:35.803Z,20.34
2017-06-13T19:22:37.351Z,20.38
2017-06-13T19:24:39.241Z,20.34
2017-06-13T19:26:41.050Z,20.38
2017-06-13T19:28:42.513Z,20.33
2017-06-13T19:30:44.565Z,20.33
2017-06-13T19:32:47.644Z,20.28
2017-06-13T19:34:52.377Z,20.25
2017-06-13T19:36:55.103Z,20.23
2017-06-13T19:38:57.142Z,20.21
2017-06-13T19:40:59.967Z,20.24
2017-06-13T19:43:03.567Z,20.24
2017-06-13T19:45:06.321Z,20.12
2017-06-13T19:47:08.799Z,20.12
2017-06-13T19:49:11.070Z,20.15
2017-06-13T19:51:12.915Z,19.97
2017-06-13T19:53:15.263Z,20.00
2017-06-13T19:55:18.812Z,19.88
2017-06-13T19:57:20.784Z,19.86
2017-06-13T19:59:22.663Z,19.84
2017-06-13T20:01:24.215Z,19.79
2017-06-13T20:03:25.744Z,19.79
2017-06-13T20:05:27.315Z,19.70
2017-06-13T20:07:29.168Z,19.75
2017-06-13T20:09:31.017Z,19.68
2017-06-13T20:11:32.708Z,19.72
2017-06-13T20:13:34.914Z,19.61
2017-06-13T20:15:36.755Z,19.60
2017-06-13T20:17:38.655Z,19.48
2017-06-13T20:19:40.520Z,19.53
2017-06-13T20:21:43.443Z,19.47
2017-06-13T20:23:45.260Z,19.42
2017-06-13T20:25:47.021Z,19.35
2017-06-13T20:27:48.916Z,19.33
2017-06-13T20:29:50.770Z,19.24
2017-06-13T20:31:52.603Z,19.24
2017-06-13T20:33:54.406Z,19.17
2017-06-13T20:35:56.302Z,19.14
2017-06-13T20:37:58.043Z,19.06
2017-06-13T20:40:00.072Z,18.98
2017-06-13T20:42:01.763Z,18.91
2017-06-13T20:44:03.709Z,18.90
2017-06-13T20:46:05.628Z,18.94
2017-06-13T20:48:07.409Z,18.84
2017-06-13T20:50:09.473Z,18.82
2017-06-13T20:52:11.301Z,18.77
2017-06-13T20:54:13.233Z,18.65
2017-06-13T20:56:15.387Z,18.70
2017-06-13T20:58:17.240Z,18.65
2017-06-13T21:00:19.162Z,18.61
2017-06-13T21:02:20.947Z,18.52
2017-06-13T21:04:22.738Z,18.55
2017-06-13T21:06:24.423Z,18.52
2017-06-13T21:08:26.464Z,18.49
2017-06-13T21:10:28.300Z,18.55
2017-06-13T21:12:30.127Z,18.33
2017-06-13T21:14:31.900Z,18.42
2017-06-13T21:16:33.822Z,18.34
2017-06-13T21:18:35.580Z,18.25
2017-06-13T21:20:37.535Z,18.22
2017-06-13T21:22:39.838Z,18.27
2017-06-13T21:24:42.026Z,18.17
2017-06-13T21:26:44.493Z,18.02
2017-06-13T21:28:46.805Z,18.00
2017-06-13T21:30:49.027Z,17.99
2017-06-13T21:32:51.238Z,17.95
2017-06-13T21:34:53.802Z,17.97
2017-06-13T21:36:55.713Z,17.89
2017-06-13T21:38:57.915Z,17.85
2017-06-13T21:40:59.839Z,17.76
2017-06-13T21:43:01.787Z,17.74
2017-06-13T21:45:03.682Z,17.69
2017-06-13T21:47:05.560Z,17.67
2017-06-13T21:49:07.376Z,17.66
2017-06-13T21:51:10.156Z,17.57
2017-06-13T21:53:12.449Z,17.62
2017-06-13T21:55:14.589Z,17.55
2017-06-13T21:57:16.800Z,17.54
2017-06-13T21:59:18.878Z,17.50
2017-06-13T22:01:20.728Z,17.48
2017-06-13T22:03:22.703Z,17.50
2017-06-13T22:05:24.965Z,17.41
2017-06-13T22:07:27.079Z,17.41
2017-06-13T22:09:29.313Z,17.44
2017-06-13T22:11:31.100Z,17.35
2017-06-13T22:14:14.896Z,17.47
2017-06-13T22:16:16.417Z,17.30
2017-06-13T22:18:17.975Z,17.30
2017-06-13T22:20:19.796Z,17.26
2017-06-13T22:22:22.092Z,17.23
2017-06-13T22:24:23.898Z,17.18
2017-06-13T22:26:25.807Z,17.04
2017-06-13T22:28:29.711Z,17.00
2017-06-13T22:30:31.466Z,16.95
2017-06-13T22:32:33.343Z,16.89
2017-06-13T22:34:35.125Z,16.83
2017-06-13T22:36:36.989Z,16.92
2017-06-13T22:38:38.791Z,16.85
2017-06-13T22:40:40.673Z,16.78
2017-06-13T22:42:42.928Z,16.81
2017-06-13T22:44:45.237Z,16.78
2017-06-13T22:46:47.106Z,16.68
2017-06-13T22:48:48.926Z,16.63
2017-06-13T22:50:50.856Z,16.71
2017-06-13T22:52:52.753Z,16.71
2017-06-13T22:54:54.620Z,16.67
2017-06-13T22:56:56.462Z,16.55
2017-06-13T22:58:58.234Z,16.58
2017-06-13T23:00:59.945Z,16.55
2017-06-13T23:03:01.866Z,16.53
2017-06-13T23:05:03.675Z,16.38
2017-06-13T23:07:06.226Z,16.53
2017-06-13T23:09:08.066Z,16.42
2017-06-13T23:11:10.870Z,16.34
2017-06-13T23:13:12.867Z,16.27
2017-06-13T23:15:14.668Z,16.23
2017-06-13T23:17:16.549Z,16.15
2017-06-13T23:19:18.452Z,16.09
2017-06-13T23:21:20.699Z,16.11
2017-06-13T23:23:22.912Z,16.04
2017-06-13T23:25:24.749Z,15.99
2017-06-13T23:27:26.864Z,15.99
2017-06-13T23:29:28.751Z,16.03
2017-06-13T23:31:30.979Z,15.96
2017-06-13T23:33:32.627Z,16.01
2017-06-13T23:35:34.863Z,15.97
2017-06-13T23:37:36.795Z,15.89
2017-06-13T23:39:38.580Z,15.93
2017-06-13T23:41:40.387Z,15.89
2017-06-13T23:43:42.282Z,15.89
2017-06-13T23:45:44.209Z,15.82
2017-06-13T23:47:45.977Z,15.72
2017-06-13T23:49:47.728Z,15.72
2017-06-13T23:51:49.614Z,15.76
2017-06-13T23:53:51.484Z,15.76
2017-06-13T23:55:53.361Z,15.68
2017-06-13T23:57:55.192Z,15.63
2017-06-13T23:59:57.515Z,15.67
